Time,TemperatureF,DewpointF,PressureIn,WindDirection,WindDirectionDegrees,WindSpeedMPH,WindSpeedGustMPH,Humidity,HourlyPrecipIn,Conditions,Clouds,dailyrainin,SoftwareType,DateUTC
2013-09-06 00:02:00,76.3,73.8,30.07,ESE,118,0.0,1.0,92,0.00,,,0.00,meteohub,2013-09-06 05:02:00,
2013-09-06 00:17:00,76.3,74.1,30.07,ESE,118,0.0,1.0,93,0.00,,,0.00,meteohub,2013-09-06 05:17:00,
2013-09-06 00:32:00,75.9,73.0,30.07,ESE,118,0.0,1.0,91,0.00,,,0.00,meteohub,2013-09-06 05:32:00,
2013-09-06 00:47:00,75.9,73.0,30.06,ESE,118,0.0,0.0,91,0.00,,,0.00,meteohub,2013-09-06 05:47:00,
2013-09-06 01:17:00,75.9,73.0,30.05,ESE,118,0.0,1.0,91,0.00,,,0.00,meteohub,2013-09-06 06:17:00,
2013-09-06 01:32:00,75.9,73.0,30.05,ESE,118,0.0,1.0,91,0.00,,,0.00,meteohub,2013-09-06 06:32:00,
2013-09-06 01:47:00,75.7,72.9,30.05,ESE,118,0.0,0.0,91,0.00,,,0.00,meteohub,2013-09-06 06:47:00,
2013-09-06 02:02:00,75.7,72.9,30.04,ESE,118,0.0,0.0,91,0.00,,,0.00,meteohub,2013-09-06 07:02:00,
2013-09-06 02:17:00,75.7,72.9,30.04,ESE,118,0.0,1.0,91,0.00,,,0.00,meteohub,2013-09-06 07:17:00,
2013-09-06 02:32:00,75.7,72.9,30.04,ESE,118,0.0,0.0,91,0.00,,,0.00,meteohub,2013-09-06 07:32:00,
2013-09-06 02:47:00,75.7,72.9,30.04,ESE,118,0.0,0.0,91,0.00,,,0.00,meteohub,2013-09-06 07:47:00,
2013-09-06 03:02:00,75.7,72.9,30.04,ESE,118,0.0,0.0,91,0.00,,,0.00,meteohub,2013-09-06 08:02:00,
2013-09-06 03:17:00,75.6,73.0,30.04,ESE,118,0.0,0.0,92,0.00,,,0.00,meteohub,2013-09-06 08:17:00,
2013-09-06 03:32:00,75.6,73.0,30.04,ESE,118,0.0,0.0,92,0.00,,,0.00,meteohub,2013-09-06 08:32:00,
2013-09-06 03:47:00,75.6,73.0,30.04,ESE,118,0.0,0.0,92,0.00,,,0.00,meteohub,2013-09-06 08:47:00,
2013-09-06 04:02:00,75.2,72.7,30.04,ESE,118,0.0,0.0,92,0.00,,,0.00,meteohub,2013-09-06 09:02:00,
2013-09-06 04:17:00,75.0,72.9,30.03,ESE,118,0.0,0.0,93,0.00,,,0.00,meteohub,2013-09-06 09:17:00,
2013-09-06 04:32:00,75.0,72.9,30.04,ESE,118,0.0,0.0,93,0.00,,,0.00,meteohub,2013-09-06 09:32:00,
2013-09-06 04:47:00,75.4,72.9,30.03,ESE,118,0.0,1.0,92,0.00,,,0.00,meteohub,2013-09-06 09:47:00,
2013-09-06 05:02:00,75.4,72.9,30.04,ESE,118,0.0,0.0,92,0.00,,,0.00,meteohub,2013-09-06 10:02:00,
2013-09-06 05:17:00,75.2,72.7,30.04,ESE,118,0.0,1.0,92,0.00,,,0.00,meteohub,2013-09-06 10:17:00,
2013-09-06 05:32:00,75.4,72.3,30.04,ESE,118,0.0,1.0,90,0.00,,,0.00,meteohub,2013-09-06 10:32:00,
2013-09-06 05:47:00,75.0,72.1,30.04,ESE,118,0.0,0.0,91,0.00,,,0.00,meteohub,2013-09-06 10:47:00,
2013-09-06 06:02:00,74.8,72.0,30.05,ESE,118,0.0,0.0,91,0.00,,,0.00,meteohub,2013-09-06 11:02:00,
2013-09-06 06:17:00,74.8,72.0,30.05,ESE,118,0.0,1.0,91,0.00,,,0.00,meteohub,2013-09-06 11:17:00,
2013-09-06 06:32:00,74.8,72.0,30.06,ESE,118,0.0,1.0,91,0.00,,,0.00,meteohub,2013-09-06 11:32:00,
2013-09-06 06:47:00,74.8,72.0,30.06,ESE,118,0.0,1.0,91,0.00,,,0.00,meteohub,2013-09-06 11:47:00,
2013-09-06 07:02:00,74.8,72.0,30.06,ESE,118,0.0,0.0,91,0.00,,,0.00,meteohub,2013-09-06 12:02:00,
2013-09-06 07:17:00,74.8,72.3,30.07,ESE,118,0.0,0.0,92,0.00,,,0.00,meteohub,2013-09-06 12:17:00,
2013-09-06 07:32:00,75.2,72.7,30.07,ESE,113,0.0,1.0,92,0.00,,,0.00,meteohub,2013-09-06 12:32:00,
2013-09-06 07:47:00,76.1,72.9,30.08,East,88,0.0,2.0,90,0.00,,,0.00,meteohub,2013-09-06 12:47:00,
2013-09-06 08:02:00,76.3,73.4,30.08,East,88,0.0,2.0,91,0.00,,,0.00,meteohub,2013-09-06 13:02:00,
2013-09-06 08:17:00,77.0,73.6,30.08,ENE,78,0.0,2.0,89,0.00,,,0.00,meteohub,2013-09-06 13:17:00,
2013-09-06 08:32:00,77.5,73.4,30.08,ENE,78,1.0,1.0,87,0.00,,,0.00,meteohub,2013-09-06 13:32:00,
2013-09-06 08:47:00,78.4,73.9,30.08,ENE,78,0.0,2.0,86,0.00,,,0.00,meteohub,2013-09-06 13:47:00,
2013-09-06 09:02:00,79.2,73.9,30.08,ENE,78,0.0,1.0,84,0.00,,,0.00,meteohub,2013-09-06 14:02:00,
2013-09-06 09:17:00,80.4,74.5,30.08,ENE,78,0.0,1.0,82,0.00,,,0.00,meteohub,2013-09-06 14:17:00,
2013-09-06 09:32:00,81.1,74.3,30.08,ENE,78,0.0,1.0,80,0.00,,,0.00,meteohub,2013-09-06 14:32:00,
2013-09-06 09:47:00,82.0,74.1,30.09,East,86,0.0,1.0,77,0.00,,,0.00,meteohub,2013-09-06 14:47:00,
2013-09-06 10:02:00,83.1,73.6,30.09,East,100,0.0,4.0,73,0.00,,,0.00,meteohub,2013-09-06 15:02:00,
2013-09-06 10:17:00,84.2,73.8,30.09,NE,54,0.0,3.0,71,0.00,,,0.00,meteohub,2013-09-06 15:17:00,
2013-09-06 10:32:00,85.8,75.4,30.09,NE,42,0.0,2.0,71,0.00,,,0.00,meteohub,2013-09-06 15:32:00,
2013-09-06 10:47:00,86.7,74.5,30.09,NE,38,2.0,2.0,67,0.00,,,0.00,meteohub,2013-09-06 15:47:00,
2013-09-06 11:02:00,87.4,73.8,30.09,NE,46,0.0,3.0,64,0.00,,,0.00,meteohub,2013-09-06 16:02:00,
2013-09-06 11:17:00,88.5,73.4,30.09,ESE,115,0.0,2.0,61,0.00,,,0.00,meteohub,2013-09-06 16:17:00,
2013-09-06 11:32:00,88.9,74.1,30.09,East,95,0.0,2.0,62,0.00,,,0.00,meteohub,2013-09-06 16:32:00,
2013-09-06 11:47:00,89.1,73.9,30.09,ENE,73,0.0,2.0,61,0.00,,,0.00,meteohub,2013-09-06 16:47:00,
2013-09-06 12:02:00,88.9,74.1,30.08,NNE,25,0.0,4.0,62,0.00,,,0.00,meteohub,2013-09-06 17:02:00,
2013-09-06 12:17:00,88.5,72.9,30.08,North,350,2.0,5.0,60,0.00,,,0.00,meteohub,2013-09-06 17:17:00,
2013-09-06 12:32:00,89.4,73.2,30.07,NNW,334,0.0,4.0,59,0.00,,,0.00,meteohub,2013-09-06 17:32:00,
2013-09-06 12:47:00,88.5,73.8,30.06,NE,42,0.0,8.0,62,0.00,,,0.00,meteohub,2013-09-06 17:47:00,
2013-09-06 13:02:00,88.2,74.5,30.06,NW,311,4.0,7.0,64,0.00,,,0.00,meteohub,2013-09-06 18:02:00,
2013-09-06 13:17:00,87.6,75.4,30.06,North,350,2.0,6.0,67,0.00,,,0.00,meteohub,2013-09-06 18:17:00,
2013-09-06 13:32:00,88.0,73.4,30.05,NW,315,4.0,5.0,62,0.00,,,0.00,meteohub,2013-09-06 18:32:00,
2013-09-06 13:47:00,88.2,72.0,30.04,WNW,299,2.0,5.0,59,0.00,,,0.00,meteohub,2013-09-06 18:47:00,
2013-09-06 14:02:00,90.1,73.4,30.04,SW,229,2.0,3.0,58,0.00,,,0.00,meteohub,2013-09-06 19:02:00,
2013-09-06 14:17:00,89.1,72.9,30.04,NW,320,2.0,4.0,59,0.00,,,0.00,meteohub,2013-09-06 19:17:00,
2013-09-06 14:32:00,88.3,72.7,30.03,WSW,254,5.0,6.0,60,0.00,,,0.00,meteohub,2013-09-06 19:32:00,
2013-09-06 14:47:00,88.3,72.7,30.02,West,276,4.0,6.0,60,0.00,,,0.00,meteohub,2013-09-06 19:47:00,
2013-09-06 15:02:00,88.2,71.6,30.02,West,261,3.0,6.0,58,0.00,,,0.00,meteohub,2013-09-06 20:02:00,
2013-09-06 15:17:00,88.3,72.1,30.01,West,261,3.0,5.0,59,0.00,,,0.00,meteohub,2013-09-06 20:17:00,
2013-09-06 15:32:00,88.7,72.0,30.01,WSW,249,3.0,6.0,58,0.00,,,0.00,meteohub,2013-09-06 20:32:00,
2013-09-06 15:47:00,88.3,71.6,30.00,SW,235,4.0,6.0,58,0.00,,,0.00,meteohub,2013-09-06 20:47:00,
2013-09-06 16:02:00,88.9,72.1,30.00,West,271,1.0,4.0,58,0.00,,,0.00,meteohub,2013-09-06 21:02:00,
2013-09-06 16:17:00,89.1,72.9,29.99,West,275,2.0,3.0,59,0.00,,,0.00,meteohub,2013-09-06 21:17:00,
2013-09-06 16:32:00,89.2,72.5,29.99,West,261,3.0,3.0,58,0.00,,,0.00,meteohub,2013-09-06 21:32:00,
2013-09-06 16:47:00,89.8,72.5,29.99,WSW,250,0.0,3.0,57,0.00,,,0.00,meteohub,2013-09-06 21:47:00,
2013-09-06 17:02:00,90.0,72.1,29.99,WSW,250,0.0,2.0,56,0.00,,,0.00,meteohub,2013-09-06 22:02:00,
2013-09-06 17:17:00,89.8,71.4,29.99,WSW,250,0.0,1.0,55,0.00,,,0.00,meteohub,2013-09-06 22:17:00,
2013-09-06 17:32:00,88.3,75.9,29.99,WSW,250,0.0,1.0,67,0.00,,,0.00,meteohub,2013-09-06 22:32:00,
2013-09-06 17:47:00,86.2,75.2,29.99,WSW,250,0.0,2.0,70,0.00,,,0.00,meteohub,2013-09-06 22:47:00,
2013-09-06 18:02:00,86.0,75.9,29.99,WSW,250,0.0,0.0,72,0.00,,,0.00,meteohub,2013-09-06 23:02:00,
2013-09-06 18:17:00,86.4,76.6,29.98,WSW,250,0.0,0.0,73,0.00,,,0.00,meteohub,2013-09-06 23:17:00,
2013-09-06 18:32:00,86.2,76.5,29.98,WSW,250,0.0,0.0,73,0.00,,,0.00,meteohub,2013-09-06 23:32:00,
2013-09-06 18:47:00,85.8,76.1,29.99,WSW,250,0.0,0.0,73,0.00,,,0.00,meteohub,2013-09-06 23:47:00,
2013-09-06 19:02:00,84.0,74.5,29.99,WSW,250,0.0,1.0,73,0.00,,,0.00,meteohub,2013-09-07 00:02:00,
2013-09-06 19:17:00,82.8,73.9,29.99,WSW,250,0.0,0.0,75,0.00,,,0.00,meteohub,2013-09-07 00:17:00,
2013-09-06 19:32:00,82.0,74.1,29.99,WSW,250,0.0,0.0,77,0.00,,,0.00,meteohub,2013-09-07 00:32:00,
2013-09-06 19:47:00,81.7,73.8,29.99,WSW,250,0.0,0.0,77,0.00,,,0.00,meteohub,2013-09-07 00:47:00,
2013-09-06 20:02:00,81.1,73.6,30.00,WSW,250,0.0,0.0,78,0.00,,,0.00,meteohub,2013-09-07 01:02:00,
2013-09-06 20:17:00,81.0,73.8,30.00,WSW,250,0.0,0.0,79,0.00,,,0.00,meteohub,2013-09-07 01:17:00,
2013-09-06 20:32:00,80.4,73.8,30.01,WSW,250,0.0,0.0,80,0.00,,,0.00,meteohub,2013-09-07 01:32:00,
2013-09-06 20:47:00,80.1,73.8,30.01,WSW,250,0.0,0.0,81,0.00,,,0.00,meteohub,2013-09-07 01:47:00,
2013-09-06 21:02:00,80.1,73.8,30.01,WSW,250,0.0,0.0,81,0.00,,,0.00,meteohub,2013-09-07 02:02:00,
2013-09-06 21:17:00,79.5,73.6,30.02,WSW,250,0.0,0.0,82,0.00,,,0.00,meteohub,2013-09-07 02:17:00,
2013-09-06 21:32:00,79.5,73.6,30.02,WSW,250,0.0,0.0,82,0.00,,,0.00,meteohub,2013-09-07 02:32:00,
2013-09-06 21:47:00,79.5,73.2,30.01,WSW,250,0.0,0.0,81,0.00,,,0.00,meteohub,2013-09-07 02:47:00,
2013-09-06 22:02:00,79.9,72.9,30.01,WSW,250,0.0,0.0,79,0.00,,,0.00,meteohub,2013-09-07 03:02:00,
2013-09-06 22:17:00,79.5,72.5,30.01,WSW,250,0.0,0.0,79,0.00,,,0.00,meteohub,2013-09-07 03:17:00,
2013-09-06 22:32:00,79.3,72.3,30.01,WSW,250,0.0,0.0,79,0.00,,,0.00,meteohub,2013-09-07 03:32:00,
2013-09-06 22:47:00,78.8,72.1,30.01,WSW,250,0.0,0.0,80,0.00,,,0.00,meteohub,2013-09-07 03:47:00,
2013-09-06 23:02:00,78.6,72.0,30.01,WSW,250,0.0,0.0,80,0.00,,,0.00,meteohub,2013-09-07 04:02:00,
2013-09-06 23:17:00,78.4,71.8,30.01,WSW,250,0.0,0.0,80,0.00,,,0.00,meteohub,2013-09-07 04:17:00,
2013-09-06 23:32:00,78.3,71.6,30.01,WSW,250,0.0,0.0,80,0.00,,,0.00,meteohub,2013-09-07 04:32:00,
2013-09-06 23:47:00,78.1,71.1,30.01,WSW,250,0.0,0.0,79,0.00,,,0.00,meteohub,2013-09-07 04:47:00,